createdAt,value
2022-10-30T00:01:07.155Z,99.90
2022-10-30T00:03:33.889Z,99.90
2022-10-30T00:06:04.946Z,99.90
2022-10-30T00:08:32.244Z,99.90
2022-10-30T00:11:06.329Z,99.90
2022-10-30T00:13:33.032Z,99.90
2022-10-30T00:16:02.801Z,99.90
2022-10-30T00:18:31.678Z,99.90
2022-10-30T00:21:04.177Z,99.90
2022-10-30T00:23:30.885Z,99.90
2022-10-30T00:26:01.775Z,99.90
2022-10-30T00:28:30.694Z,99.90
2022-10-30T00:31:04.913Z,99.90
2022-10-30T00:33:32.050Z,99.90
2022-10-30T00:35:59.041Z,99.90
2022-10-30T00:38:26.055Z,99.90
2022-10-30T00:40:52.836Z,99.90
2022-10-30T00:43:30.298Z,99.90
2022-10-30T00:46:00.903Z,99.90
2022-10-30T00:48:28.654Z,99.90
2022-10-30T00:50:57.142Z,99.90
2022-10-30T00:53:24.006Z,99.90
2022-10-30T00:56:02.815Z,99.90
2022-10-30T00:58:33.364Z,99.90
2022-10-30T01:01:03.921Z,99.90
2022-10-30T01:03:31.146Z,99.90
2022-10-30T01:06:04.548Z,99.90
2022-10-30T01:08:31.578Z,99.90
2022-10-30T01:10:59.904Z,99.90
2022-10-30T01:13:27.289Z,99.90
2022-10-30T01:16:39.489Z,99.90
2022-10-30T01:19:24.829Z,99.90
2022-10-30T01:22:15.611Z,99.90
2022-10-30T01:25:03.536Z,99.90
2022-10-30T01:28:04.167Z,99.90
2022-10-30T01:30:36.792Z,99.90
2022-10-30T01:33:30.701Z,99.90
2022-10-30T01:36:12.564Z,99.90
2022-10-30T01:38:47.310Z,99.90
2022-10-30T01:41:16.242Z,99.90
2022-10-30T01:43:44.830Z,99.90
2022-10-30T01:46:16.892Z,99.90
2022-10-30T01:49:11.434Z,99.90
2022-10-30T01:52:08.724Z,99.90
2022-10-30T01:54:45.271Z,99.90
2022-10-30T01:57:25.018Z,99.90
2022-10-30T02:00:05.767Z,99.90
2022-10-30T02:02:33.126Z,99.90
2022-10-30T02:05:01.001Z,99.90
2022-10-30T02:07:30.000Z,99.90
2022-10-30T02:09:56.920Z,99.90
2022-10-30T02:12:27.110Z,99.90
2022-10-30T02:14:58.262Z,99.90
2022-10-30T02:17:26.280Z,99.90
2022-10-30T02:19:55.305Z,99.90
2022-10-30T02:22:22.276Z,99.90
2022-10-30T02:24:49.013Z,99.90
2022-10-30T02:27:18.070Z,99.90
2022-10-30T02:29:44.734Z,99.90
2022-10-30T02:32:11.428Z,99.90
2022-10-30T02:34:38.186Z,99.90
2022-10-30T02:37:05.095Z,99.90
2022-10-30T02:39:34.329Z,99.90
2022-10-30T02:42:02.196Z,99.90
2022-10-30T02:44:28.975Z,99.90
2022-10-30T02:46:55.816Z,99.90
2022-10-30T02:49:22.567Z,99.90
2022-10-30T02:51:49.243Z,99.90
2022-10-30T02:54:18.472Z,99.90
2022-10-30T02:56:45.350Z,99.90
2022-10-30T02:59:12.114Z,99.90
2022-10-30T03:01:38.980Z,99.90
2022-10-30T03:04:05.954Z,99.90
2022-10-30T03:06:32.988Z,99.90
2022-10-30T03:08:59.745Z,99.90
2022-10-30T03:11:26.703Z,99.90
2022-10-30T03:13:54.490Z,99.90
2022-10-30T03:16:26.189Z,99.90
2022-10-30T03:18:53.171Z,99.90
2022-10-30T03:21:23.353Z,99.90
2022-10-30T03:23:50.688Z,99.90
2022-10-30T03:26:20.677Z,99.90
2022-10-30T03:28:47.868Z,99.90
2022-10-30T03:31:17.230Z,99.90
2022-10-30T03:33:44.114Z,99.90
2022-10-30T03:36:12.895Z,99.90
2022-10-30T03:38:40.090Z,99.90
2022-10-30T03:41:07.267Z,99.90
2022-10-30T03:43:34.357Z,99.90
2022-10-30T03:46:01.254Z,99.90
2022-10-30T03:48:29.346Z,99.90
2022-10-30T03:50:57.860Z,99.90
2022-10-30T03:53:26.249Z,99.90
2022-10-30T03:55:58.330Z,99.90
2022-10-30T03:58:25.287Z,99.90
2022-10-30T04:00:54.397Z,99.90
2022-10-30T04:03:23.918Z,99.90
2022-10-30T04:05:53.264Z,99.90
2022-10-30T04:08:20.366Z,99.90
2022-10-30T04:10:49.720Z,99.90
2022-10-30T04:13:17.838Z,99.90
2022-10-30T04:15:44.695Z,99.90
2022-10-30T04:18:12.583Z,99.90
2022-10-30T04:20:39.668Z,99.90
2022-10-30T04:23:10.825Z,99.90
2022-10-30T04:25:37.600Z,99.90
2022-10-30T04:28:04.614Z,99.90
2022-10-30T04:30:35.313Z,99.90
2022-10-30T04:33:06.299Z,99.90
2022-10-30T04:35:36.973Z,99.90
2022-10-30T04:38:08.912Z,99.90
2022-10-30T04:40:40.343Z,99.90
2022-10-30T04:43:08.159Z,99.90
2022-10-30T04:45:35.030Z,99.90
2022-10-30T04:48:12.857Z,99.90
2022-10-30T04:50:39.938Z,99.90
2022-10-30T04:53:11.906Z,99.90
2022-10-30T04:55:38.660Z,99.90
2022-10-30T04:58:07.910Z,99.90
2022-10-30T05:00:37.875Z,99.90
2022-10-30T05:03:04.625Z,99.90
2022-10-30T05:05:34.494Z,99.90
2022-10-30T05:08:01.882Z,99.90
2022-10-30T05:10:28.982Z,99.90
2022-10-30T05:12:55.850Z,99.90
2022-10-30T05:15:24.869Z,99.90
2022-10-30T05:17:53.721Z,99.90
2022-10-30T05:20:20.900Z,99.90
2022-10-30T05:22:55.024Z,99.90
2022-10-30T05:25:22.015Z,99.90
2022-10-30T05:27:51.315Z,99.90
2022-10-30T05:30:18.056Z,99.90
2022-10-30T05:32:44.821Z,99.90
2022-10-30T05:35:11.563Z,99.90
2022-10-30T05:37:40.747Z,99.90
2022-10-30T05:40:07.890Z,99.90
2022-10-30T05:42:34.623Z,99.90
2022-10-30T05:45:03.576Z,99.90
2022-10-30T05:47:30.415Z,99.90
2022-10-30T05:49:57.174Z,99.90
2022-10-30T05:52:23.851Z,99.90
2022-10-30T05:54:50.579Z,99.90
2022-10-30T05:57:17.362Z,99.90
2022-10-30T05:59:44.085Z,99.90
2022-10-30T06:02:11.005Z,99.90
2022-10-30T06:04:37.789Z,99.90
2022-10-30T06:07:06.955Z,99.90
2022-10-30T06:09:33.653Z,99.90
2022-10-30T06:12:02.932Z,99.90
2022-10-30T06:14:31.841Z,99.90
2022-10-30T06:16:58.681Z,99.90
2022-10-30T06:19:25.474Z,99.90
2022-10-30T06:21:52.188Z,99.90
2022-10-30T06:24:21.023Z,99.90
2022-10-30T06:26:47.842Z,99.90
2022-10-30T06:29:14.557Z,99.90
2022-10-30T06:31:43.842Z,99.90
2022-10-30T06:34:10.598Z,99.90
2022-10-30T06:36:37.628Z,99.90
2022-10-30T06:39:04.371Z,99.90
2022-10-30T06:41:31.168Z,99.90
2022-10-30T06:43:58.101Z,99.90
2022-10-30T06:46:27.506Z,99.90
2022-10-30T06:48:57.673Z,99.90
2022-10-30T06:51:24.691Z,99.90
2022-10-30T06:53:53.604Z,99.90
2022-10-30T06:56:22.583Z,99.90
2022-10-30T06:58:49.328Z,99.90
2022-10-30T07:01:16.148Z,99.90
2022-10-30T07:03:42.869Z,99.90
2022-10-30T07:06:09.816Z,99.90
2022-10-30T07:08:36.554Z,99.90
2022-10-30T07:11:03.405Z,99.90
2022-10-30T07:13:30.173Z,99.90
2022-10-30T07:15:59.164Z,99.90
2022-10-30T07:18:25.881Z,99.90
2022-10-30T07:20:56.596Z,99.90
2022-10-30T07:23:23.357Z,99.90
2022-10-30T07:25:50.106Z,99.90
2022-10-30T07:28:17.037Z,99.90
2022-10-30T07:30:48.632Z,99.90
2022-10-30T07:33:15.248Z,99.90
2022-10-30T07:35:44.173Z,99.90
2022-10-30T07:38:17.646Z,99.90
2022-10-30T07:40:46.906Z,99.90
2022-10-30T07:43:16.105Z,99.90
2022-10-30T07:45:45.637Z,99.90
2022-10-30T07:48:14.986Z,99.90
2022-10-30T07:50:42.106Z,99.90
2022-10-30T07:53:09.036Z,99.90
2022-10-30T07:55:35.930Z,99.90
2022-10-30T07:58:02.840Z,99.90
2022-10-30T08:00:31.966Z,99.90
2022-10-30T08:02:59.168Z,99.90
2022-10-30T08:05:28.867Z,99.90
2022-10-30T08:07:57.556Z,99.90
2022-10-30T08:10:27.624Z,99.90
2022-10-30T08:12:54.855Z,99.90
2022-10-30T08:15:24.087Z,99.90
2022-10-30T08:17:51.520Z,99.90
2022-10-30T08:20:22.346Z,99.90
2022-10-30T08:22:51.256Z,99.90
2022-10-30T08:25:19.656Z,99.90
2022-10-30T08:27:58.100Z,99.90
2022-10-30T08:30:26.742Z,99.90
2022-10-30T08:33:01.111Z,99.90
2022-10-30T08:35:30.659Z,99.90
2022-10-30T08:38:03.203Z,99.90
2022-10-30T08:40:32.196Z,99.90
2022-10-30T08:43:02.203Z,99.90
2022-10-30T08:45:31.563Z,99.90
2022-10-30T08:48:03.696Z,99.90
2022-10-30T08:50:31.984Z,99.90
2022-10-30T08:53:07.063Z,99.90
2022-10-30T08:55:35.431Z,99.90
2022-10-30T08:58:02.724Z,99.90
2022-10-30T09:00:30.180Z,99.90
2022-10-30T09:02:57.265Z,99.90
2022-10-30T09:05:24.511Z,99.90
2022-10-30T09:08:01.318Z,99.90
2022-10-30T09:10:29.242Z,99.90
2022-10-30T09:13:00.345Z,99.90
2022-10-30T09:15:27.325Z,99.90
2022-10-30T09:17:59.146Z,99.90
2022-10-30T09:20:26.245Z,99.90
2022-10-30T09:22:55.326Z,99.90
2022-10-30T09:25:22.291Z,99.90
2022-10-30T09:27:49.221Z,99.90
2022-10-30T09:30:16.075Z,99.90
2022-10-30T09:32:45.540Z,99.90
2022-10-30T09:35:14.824Z,99.90
2022-10-30T09:37:44.102Z,99.90
2022-10-30T09:40:19.742Z,99.90
2022-10-30T09:42:50.713Z,99.90
2022-10-30T09:45:35.000Z,99.90
2022-10-30T09:48:20.674Z,99.90
2022-10-30T09:51:18.173Z,99.90
2022-10-30T09:54:09.150Z,99.90
2022-10-30T09:56:49.693Z,99.90
2022-10-30T09:59:40.975Z,99.90
2022-10-30T10:02:34.103Z,99.90
2022-10-30T10:05:21.419Z,99.90
2022-10-30T10:08:03.126Z,99.90
2022-10-30T10:11:17.059Z,99.90
2022-10-30T10:13:53.179Z,99.90
2022-10-30T10:16:30.545Z,99.90
2022-10-30T10:19:20.541Z,99.90
2022-10-30T10:21:57.667Z,99.90
2022-10-30T10:24:34.832Z,99.90
2022-10-30T10:27:16.134Z,99.90
2022-10-30T10:29:42.891Z,99.90
2022-10-30T10:32:30.991Z,99.90
2022-10-30T10:35:19.931Z,99.70
2022-10-30T10:37:59.174Z,99.60
2022-10-30T10:40:40.935Z,99.50
2022-10-30T10:43:39.610Z,99.50
2022-10-30T10:46:33.268Z,99.20
2022-10-30T10:49:24.313Z,99.00
2022-10-30T10:52:01.102Z,98.80
2022-10-30T10:54:34.391Z,98.50
2022-10-30T10:57:06.232Z,98.20
2022-10-30T10:59:38.419Z,98.00
2022-10-30T11:02:43.006Z,98.00
2022-10-30T11:05:34.791Z,98.00
2022-10-30T11:08:31.573Z,98.10
2022-10-30T11:11:04.684Z,98.00
2022-10-30T11:13:39.617Z,97.80
2022-10-30T11:16:18.386Z,97.50
2022-10-30T11:18:51.108Z,97.20
2022-10-30T11:21:21.604Z,97.40
2022-10-30T11:23:49.362Z,96.90
2022-10-30T11:26:20.339Z,96.70
2022-10-30T11:28:54.966Z,96.60
2022-10-30T11:31:38.187Z,96.50
2022-10-30T11:34:25.017Z,96.30
2022-10-30T11:36:55.593Z,96.20
2022-10-30T11:39:27.878Z,96.20
2022-10-30T11:41:59.390Z,96.30
2022-10-30T11:44:41.188Z,96.40
2022-10-30T11:47:10.811Z,96.40
2022-10-30T11:49:46.638Z,96.40
2022-10-30T11:52:16.826Z,96.40
2022-10-30T11:54:48.366Z,96.30
2022-10-30T11:57:23.434Z,96.30
2022-10-30T11:59:54.437Z,96.20
2022-10-30T12:02:29.686Z,96.20
2022-10-30T12:05:02.145Z,96.20
2022-10-30T12:07:34.631Z,96.00
2022-10-30T12:10:02.423Z,96.00
2022-10-30T12:12:38.196Z,96.10
2022-10-30T12:15:28.327Z,96.10
2022-10-30T12:18:08.956Z,96.30
2022-10-30T12:20:40.946Z,96.50
2022-10-30T12:23:19.395Z,96.60
2022-10-30T12:25:50.838Z,96.50
2022-10-30T12:28:27.291Z,96.60
2022-10-30T12:31:06.237Z,96.70
2022-10-30T12:33:42.233Z,96.80
2022-10-30T12:36:21.798Z,96.90
2022-10-30T12:38:58.354Z,97.00
2022-10-30T12:41:42.768Z,96.90
2022-10-30T12:44:40.547Z,96.90
2022-10-30T12:47:36.668Z,96.90
2022-10-30T12:50:15.247Z,97.10
2022-10-30T12:52:53.908Z,97.10
2022-10-30T12:55:26.514Z,97.10
2022-10-30T12:58:28.078Z,97.10
2022-10-30T13:01:07.008Z,97.10
2022-10-30T13:03:46.289Z,97.00
2022-10-30T13:06:31.675Z,97.10
2022-10-30T13:09:14.506Z,97.10
2022-10-30T13:12:14.980Z,97.20
2022-10-30T13:14:53.600Z,97.10
2022-10-30T13:17:20.569Z,97.10
2022-10-30T13:19:48.138Z,97.20
2022-10-30T13:22:19.814Z,97.10
2022-10-30T13:25:02.509Z,97.10
2022-10-30T13:28:00.309Z,97.10
2022-10-30T13:30:32.044Z,97.20
2022-10-30T13:33:24.432Z,97.30
2022-10-30T13:36:14.515Z,97.30
2022-10-30T13:38:52.530Z,97.20
2022-10-30T13:41:58.315Z,97.10
2022-10-30T13:44:46.119Z,97.00
2022-10-30T13:47:12.856Z,96.90
2022-10-30T13:49:42.173Z,97.10
2022-10-30T13:52:18.106Z,97.30
2022-10-30T13:55:02.410Z,97.20
2022-10-30T13:57:43.781Z,97.30
2022-10-30T14:00:58.161Z,97.40
2022-10-30T14:03:33.381Z,97.20
2022-10-30T14:06:22.603Z,97.20
2022-10-30T14:09:12.078Z,97.10
2022-10-30T14:11:38.832Z,97.20
2022-10-30T14:14:06.764Z,97.20
2022-10-30T14:16:40.822Z,97.20
2022-10-30T14:19:12.454Z,97.30
2022-10-30T14:21:52.253Z,97.30
2022-10-30T14:24:32.381Z,97.60
2022-10-30T14:27:04.917Z,97.60
2022-10-30T14:29:37.058Z,97.60
2022-10-30T14:32:15.651Z,97.70
2022-10-30T14:34:57.221Z,97.90
2022-10-30T14:37:31.173Z,98.00
2022-10-30T14:40:18.892Z,98.00
2022-10-30T14:42:54.202Z,98.10
2022-10-30T14:45:29.274Z,98.30
2022-10-30T14:48:33.774Z,98.50
2022-10-30T14:51:25.064Z,98.70
2022-10-30T14:54:06.387Z,98.80
2022-10-30T14:56:46.416Z,98.90
2022-10-30T14:59:13.205Z,99.00
2022-10-30T15:01:54.996Z,99.10
2022-10-30T15:05:01.600Z,99.30
2022-10-30T15:08:06.002Z,99.50
2022-10-30T15:10:36.649Z,99.50
2022-10-30T15:13:21.635Z,99.50
2022-10-30T15:16:06.585Z,99.60
2022-10-30T15:18:33.600Z,99.60
2022-10-30T15:21:05.945Z,99.60
2022-10-30T15:23:37.219Z,99.70
2022-10-30T15:26:16.828Z,99.70
2022-10-30T15:28:43.878Z,99.70
2022-10-30T15:31:24.235Z,99.70
2022-10-30T15:33:54.466Z,99.90
2022-10-30T15:36:40.658Z,99.90
2022-10-30T15:39:14.824Z,99.90
2022-10-30T15:41:56.767Z,99.90
2022-10-30T15:44:33.061Z,99.90
2022-10-30T15:47:02.144Z,99.90
2022-10-30T15:49:54.483Z,99.90
2022-10-30T15:52:31.613Z,99.90
2022-10-30T15:55:02.376Z,99.90
2022-10-30T15:58:02.289Z,99.90
2022-10-30T16:00:37.862Z,99.90
2022-10-30T16:03:19.271Z,99.90
2022-10-30T16:05:49.210Z,99.90
2022-10-30T16:08:24.259Z,99.90
2022-10-30T16:10:55.166Z,99.90
2022-10-30T16:13:31.837Z,99.90
2022-10-30T16:16:02.838Z,99.90
2022-10-30T16:18:35.931Z,99.90
2022-10-30T16:21:09.163Z,99.90
2022-10-30T16:23:48.214Z,99.90
2022-10-30T16:26:30.194Z,99.90
2022-10-30T16:29:00.434Z,99.90
2022-10-30T16:31:33.094Z,99.90
2022-10-30T16:34:00.642Z,99.90
2022-10-30T16:36:30.070Z,99.90
2022-10-30T16:38:57.618Z,99.90
2022-10-30T16:41:27.221Z,99.90
2022-10-30T16:44:13.631Z,99.90
2022-10-30T16:46:49.334Z,99.90
2022-10-30T16:49:21.995Z,99.90
2022-10-30T16:51:58.922Z,99.90
2022-10-30T16:54:32.425Z,99.90
2022-10-30T16:57:01.276Z,99.90
2022-10-30T16:59:35.995Z,99.90
2022-10-30T17:02:15.477Z,99.90
2022-10-30T17:04:46.233Z,99.90
2022-10-30T17:07:21.328Z,99.90
2022-10-30T17:09:52.240Z,99.90
2022-10-30T17:12:23.421Z,99.90
2022-10-30T17:15:07.188Z,99.90
2022-10-30T17:17:39.961Z,99.90
2022-10-30T17:22:41.662Z,99.90
2022-10-30T17:25:38.436Z,99.90
2022-10-30T17:28:26.207Z,99.90
2022-10-30T17:30:55.363Z,99.90
2022-10-30T17:33:37.563Z,99.90
2022-10-30T17:36:11.534Z,99.90
2022-10-30T17:38:42.983Z,99.90
2022-10-30T17:41:16.764Z,99.90
2022-10-30T17:44:01.256Z,99.90
2022-10-30T17:46:33.209Z,99.90
2022-10-30T17:49:00.499Z,99.90
2022-10-30T17:51:29.235Z,99.90
2022-10-30T17:53:56.002Z,99.90
2022-10-30T17:56:33.246Z,99.90
2022-10-30T17:59:00.019Z,99.90
2022-10-30T18:01:27.701Z,99.90
2022-10-30T18:03:57.782Z,99.90
2022-10-30T18:06:27.175Z,99.90
2022-10-30T18:08:54.425Z,99.90
2022-10-30T18:11:27.031Z,99.90
2022-10-30T18:13:57.760Z,99.90
2022-10-30T18:16:25.126Z,99.90
2022-10-30T18:18:54.661Z,99.90
2022-10-30T18:21:27.503Z,99.90
2022-10-30T18:23:55.084Z,99.90
2022-10-30T18:26:24.987Z,99.90
2022-10-30T18:28:52.064Z,99.90
2022-10-30T18:31:21.592Z,99.90
2022-10-30T18:33:56.621Z,99.90
2022-10-30T18:36:25.450Z,99.90
2022-10-30T18:38:56.235Z,99.90
2022-10-30T18:41:34.402Z,99.90
2022-10-30T18:44:03.783Z,99.90
2022-10-30T18:46:32.637Z,99.90
2022-10-30T18:49:04.586Z,99.90
2022-10-30T18:51:31.473Z,99.90
2022-10-30T18:53:58.388Z,99.90
2022-10-30T18:56:27.741Z,99.90
2022-10-30T18:59:00.514Z,99.90
2022-10-30T19:01:30.361Z,99.90
2022-10-30T19:04:01.182Z,99.90
2022-10-30T19:06:28.313Z,99.90
2022-10-30T19:08:55.081Z,99.80
2022-10-30T19:11:24.992Z,99.80
2022-10-30T19:13:53.967Z,99.80
2022-10-30T19:16:24.492Z,99.80
2022-10-30T19:18:51.375Z,99.80
2022-10-30T19:21:23.107Z,99.80
2022-10-30T19:23:52.557Z,99.80
2022-10-30T19:26:22.326Z,99.80
2022-10-30T19:28:49.033Z,99.80
2022-10-30T19:31:20.689Z,99.80
2022-10-30T19:33:51.487Z,99.80
2022-10-30T19:36:30.873Z,99.80
2022-10-30T19:39:08.332Z,99.80
2022-10-30T19:41:41.565Z,99.80
2022-10-30T19:44:13.142Z,99.80
2022-10-30T19:46:39.912Z,99.90
2022-10-30T19:49:18.373Z,99.90
2022-10-30T19:51:47.786Z,99.90
2022-10-30T19:54:16.809Z,99.90
2022-10-30T19:56:46.593Z,99.90
2022-10-30T19:59:15.034Z,99.90
2022-10-30T20:01:44.167Z,99.90
2022-10-30T20:04:13.776Z,99.90
2022-10-30T20:06:43.177Z,99.90
2022-10-30T20:09:11.801Z,99.90
2022-10-30T20:11:38.604Z,99.90
2022-10-30T20:14:05.503Z,99.90
2022-10-30T20:16:34.773Z,99.90
2022-10-30T20:19:01.586Z,99.90
2022-10-30T20:21:34.009Z,99.90
2022-10-30T20:24:05.912Z,99.90
2022-10-30T20:26:32.679Z,99.90
2022-10-30T20:29:04.458Z,99.90
2022-10-30T20:31:31.635Z,99.90
2022-10-30T20:33:58.325Z,99.90
2022-10-30T20:36:25.323Z,99.90
2022-10-30T20:38:54.227Z,99.90
2022-10-30T20:41:23.385Z,99.90
2022-10-30T20:43:52.841Z,99.90
2022-10-30T20:46:20.428Z,99.90
2022-10-30T20:48:49.656Z,99.90
2022-10-30T20:51:19.041Z,99.90
2022-10-30T20:53:48.372Z,99.90
2022-10-30T20:56:20.944Z,99.90
2022-10-30T20:58:49.886Z,99.90
2022-10-30T21:01:16.698Z,99.90
2022-10-30T21:03:46.400Z,99.90
2022-10-30T21:06:15.760Z,99.90
2022-10-30T21:08:47.298Z,99.90
2022-10-30T21:11:16.818Z,99.90
2022-10-30T21:13:45.732Z,99.90
2022-10-30T21:16:12.684Z,99.90
2022-10-30T21:18:39.405Z,99.90
2022-10-30T21:21:08.662Z,99.90
2022-10-30T21:23:38.029Z,99.90
2022-10-30T21:26:11.015Z,99.90
2022-10-30T21:28:39.035Z,99.90
2022-10-30T21:31:13.719Z,99.90
2022-10-30T21:33:42.974Z,99.90
2022-10-30T21:36:19.783Z,99.90
2022-10-30T21:38:49.113Z,99.90
2022-10-30T21:41:22.207Z,99.90
2022-10-30T21:43:54.088Z,99.90
2022-10-30T21:46:22.300Z,99.90
2022-10-30T21:48:49.183Z,99.90
2022-10-30T21:51:19.391Z,99.90
2022-10-30T21:53:46.790Z,99.90
2022-10-30T21:56:17.046Z,99.90
2022-10-30T21:58:46.818Z,99.90
2022-10-30T22:01:19.195Z,99.90
2022-10-30T22:03:46.518Z,99.90
2022-10-30T22:06:15.579Z,99.90
2022-10-30T22:08:46.460Z,99.90
2022-10-30T22:11:14.178Z,99.90
2022-10-30T22:13:41.318Z,99.90
2022-10-30T22:16:14.053Z,99.90
2022-10-30T22:18:43.340Z,99.90
2022-10-30T22:21:11.988Z,99.90
2022-10-30T22:23:39.781Z,99.90
2022-10-30T22:26:12.303Z,99.90
2022-10-30T22:28:42.381Z,99.90
2022-10-30T22:31:13.363Z,99.90
2022-10-30T22:33:43.875Z,99.90
2022-10-30T22:36:15.843Z,99.90
2022-10-30T22:38:45.208Z,99.90
2022-10-30T22:41:18.946Z,99.90
2022-10-30T22:43:51.313Z,99.90
2022-10-30T22:46:18.973Z,99.90
2022-10-30T22:48:49.039Z,99.90
2022-10-30T22:51:17.746Z,99.90
2022-10-30T22:53:46.461Z,99.90
2022-10-30T22:56:17.536Z,99.90
2022-10-30T22:58:48.272Z,99.90
2022-10-30T23:01:25.444Z,99.90
2022-10-30T23:03:55.375Z,99.90
2022-10-30T23:06:24.950Z,99.90
2022-10-30T23:08:52.871Z,99.90
2022-10-30T23:11:22.895Z,99.90
2022-10-30T23:13:50.117Z,99.90
2022-10-30T23:16:19.933Z,99.90
2022-10-30T23:18:50.132Z,99.90
2022-10-30T23:21:20.281Z,99.90
2022-10-30T23:23:47.346Z,99.90
2022-10-30T23:26:20.568Z,99.90
2022-10-30T23:28:49.004Z,99.90
2022-10-30T23:31:30.795Z,99.90
2022-10-30T23:33:58.391Z,99.90
2022-10-30T23:36:27.929Z,99.90
2022-10-30T23:38:59.858Z,99.90
2022-10-30T23:41:29.357Z,99.90
2022-10-30T23:44:07.441Z,99.90
2022-10-30T23:46:35.723Z,99.90
2022-10-30T23:49:03.372Z,99.90
2022-10-30T23:51:30.996Z,99.90
2022-10-30T23:54:03.552Z,99.90
2022-10-30T23:56:33.026Z,99.90
2022-10-30T23:59:00.334Z,99.90
